createdAt,value
2022-08-27T00:00:54.107Z,51.28
2022-08-27T00:03:23.583Z,51.84
2022-08-27T00:05:53.013Z,52.14
2022-08-27T00:08:21.597Z,52.27
2022-08-27T00:10:51.521Z,52.90
2022-08-27T00:13:21.115Z,53.40
2022-08-27T00:15:50.677Z,53.30
2022-08-27T00:18:22.599Z,53.47
2022-08-27T00:20:52.319Z,53.74
2022-08-27T00:23:22.813Z,53.45
2022-08-27T00:25:54.411Z,53.84
2022-08-27T00:28:27.159Z,53.90
2022-08-27T00:30:57.352Z,53.91
2022-08-27T00:33:26.495Z,54.05
2022-08-27T00:35:56.668Z,54.02
2022-08-27T00:38:25.519Z,53.88
2022-08-27T00:40:55.529Z,53.82
2022-08-27T00:43:27.343Z,54.39
2022-08-27T00:46:03.508Z,54.57
2022-08-27T00:48:36.292Z,54.16
2022-08-27T00:51:08.151Z,54.33
2022-08-27T00:53:37.639Z,54.24
2022-08-27T00:56:11.960Z,54.33
2022-08-27T00:58:44.389Z,54.73
2022-08-27T01:01:16.297Z,54.99
2022-08-27T01:03:49.724Z,55.14
2022-08-27T01:06:22.074Z,54.92
2022-08-27T01:08:56.556Z,54.97
2022-08-27T01:11:30.007Z,55.09
2022-08-27T01:14:01.402Z,55.40
2022-08-27T01:16:37.047Z,55.44
2022-08-27T01:19:11.108Z,55.28
2022-08-27T01:21:48.785Z,55.45
2022-08-27T01:24:31.324Z,55.65
2022-08-27T01:27:01.260Z,55.99
2022-08-27T01:29:31.589Z,55.76
2022-08-27T01:32:06.917Z,55.89
2022-08-27T01:34:38.579Z,55.61
2022-08-27T01:37:07.569Z,55.83
2022-08-27T01:39:40.787Z,56.09
2022-08-27T01:42:11.993Z,56.69
2022-08-27T01:44:50.609Z,56.82
2022-08-27T01:47:20.965Z,57.01
2022-08-27T01:49:51.188Z,57.10
2022-08-27T01:52:24.492Z,57.42
2022-08-27T01:54:57.511Z,57.51
2022-08-27T01:57:33.731Z,57.72
2022-08-27T02:00:03.666Z,57.65
2022-08-27T02:02:46.546Z,57.91
2022-08-27T02:05:16.884Z,57.66
2022-08-27T02:07:46.133Z,57.80
2022-08-27T02:10:20.100Z,57.99
2022-08-27T02:12:49.630Z,57.70
2022-08-27T02:15:19.669Z,57.68
2022-08-27T02:17:52.208Z,57.59
2022-08-27T02:20:24.668Z,57.22
2022-08-27T02:22:58.046Z,57.42
2022-08-27T02:25:30.724Z,57.14
2022-08-27T02:28:01.454Z,57.10
2022-08-27T02:30:32.224Z,57.27
2022-08-27T02:33:01.163Z,57.13
2022-08-27T02:35:32.983Z,57.61
2022-08-27T02:38:03.512Z,57.47
2022-08-27T02:40:33.717Z,57.51
2022-08-27T02:43:03.232Z,57.86
2022-08-27T02:45:31.844Z,58.12
2022-08-27T02:48:01.408Z,58.29
2022-08-27T02:50:30.530Z,58.36
2022-08-27T02:53:00.271Z,58.03
2022-08-27T02:55:28.899Z,58.23
2022-08-27T02:58:03.802Z,58.06
2022-08-27T03:00:33.743Z,58.55
2022-08-27T03:03:04.043Z,58.76
2022-08-27T03:05:33.691Z,59.07
2022-08-27T03:08:10.137Z,58.84
2022-08-27T03:10:40.296Z,59.31
2022-08-27T03:13:15.093Z,59.53
2022-08-27T03:15:44.902Z,59.87
2022-08-27T03:18:20.224Z,60.05
2022-08-27T03:20:50.988Z,59.98
2022-08-27T03:23:22.624Z,60.03
2022-08-27T03:25:54.138Z,60.02
2022-08-27T03:28:25.967Z,60.22
2022-08-27T03:31:00.647Z,60.35
2022-08-27T03:33:31.569Z,60.40
2022-08-27T03:36:01.697Z,60.33
2022-08-27T03:38:30.283Z,60.58
2022-08-27T03:40:58.984Z,60.62
2022-08-27T03:43:33.295Z,60.63
2022-08-27T03:46:06.339Z,60.66
2022-08-27T03:48:36.825Z,60.98
2022-08-27T03:51:08.121Z,60.92
2022-08-27T03:53:38.348Z,60.78
2022-08-27T03:56:13.059Z,60.89
2022-08-27T03:58:44.059Z,61.28
2022-08-27T04:01:13.995Z,61.34
2022-08-27T04:03:43.561Z,61.50
2022-08-27T04:06:12.103Z,61.50
2022-08-27T04:08:41.567Z,61.71
2022-08-27T04:11:10.554Z,61.72
2022-08-27T04:13:39.093Z,61.66
2022-08-27T04:16:10.094Z,61.77
2022-08-27T04:18:39.027Z,61.82
2022-08-27T04:21:13.051Z,61.70
2022-08-27T04:23:42.987Z,61.51
2022-08-27T04:26:12.585Z,61.96
2022-08-27T04:28:41.491Z,62.07
2022-08-27T04:31:13.093Z,61.76
2022-08-27T04:33:50.842Z,61.91
2022-08-27T04:36:22.270Z,61.89
2022-08-27T04:38:51.847Z,61.66
2022-08-27T04:41:21.680Z,61.55
2022-08-27T04:43:53.250Z,61.29
2022-08-27T04:46:29.251Z,61.07
2022-08-27T04:49:01.644Z,61.17
2022-08-27T04:51:31.629Z,61.29
2022-08-27T04:54:03.717Z,61.41
2022-08-27T04:56:32.743Z,61.81
2022-08-27T04:59:04.140Z,61.84
2022-08-27T05:01:34.343Z,61.85
2022-08-27T05:04:05.877Z,62.08
2022-08-27T05:06:36.741Z,62.45
2022-08-27T05:09:07.070Z,62.19
2022-08-27T05:11:36.634Z,62.38
2022-08-27T05:14:05.953Z,62.24
2022-08-27T05:16:37.965Z,62.18
2022-08-27T05:19:08.548Z,62.28
2022-08-27T05:21:40.346Z,62.32
2022-08-27T05:24:10.357Z,62.18
2022-08-27T05:26:39.878Z,62.23
2022-08-27T05:29:08.459Z,62.31
2022-08-27T05:31:41.508Z,62.28
2022-08-27T05:34:11.328Z,62.31
2022-08-27T05:36:44.238Z,62.69
2022-08-27T05:39:19.063Z,62.62
2022-08-27T05:41:47.511Z,62.72
2022-08-27T05:44:40.673Z,62.96
2022-08-27T05:47:07.804Z,62.65
2022-08-27T05:49:36.370Z,62.33
2022-08-27T05:52:10.141Z,62.11
2022-08-27T05:54:39.868Z,62.10
2022-08-27T05:57:10.077Z,61.58
2022-08-27T05:59:55.980Z,61.41
2022-08-27T06:02:26.816Z,61.23
2022-08-27T06:04:56.506Z,61.10
2022-08-27T06:07:25.070Z,61.00
2022-08-27T06:09:54.641Z,60.99
2022-08-27T06:12:27.938Z,61.04
2022-08-27T06:14:58.251Z,60.82
2022-08-27T06:17:30.431Z,60.65
2022-08-27T06:20:00.149Z,60.43
2022-08-27T06:22:28.752Z,59.65
2022-08-27T06:24:57.798Z,59.54
2022-08-27T06:27:26.438Z,59.01
2022-08-27T06:29:55.075Z,58.66
2022-08-27T06:32:24.255Z,57.41
2022-08-27T06:34:54.210Z,55.45
2022-08-27T06:37:22.706Z,53.92
2022-08-27T06:39:52.930Z,53.27
2022-08-27T06:42:22.439Z,51.71
2022-08-27T06:44:55.155Z,50.31
2022-08-27T06:47:24.980Z,49.38
2022-08-27T06:49:55.667Z,47.48
2022-08-27T06:52:24.212Z,44.86
2022-08-27T06:54:52.797Z,44.40
2022-08-27T06:57:24.790Z,42.70
2022-08-27T06:59:54.360Z,41.89
2022-08-27T07:02:23.381Z,40.72
2022-08-27T07:04:56.492Z,39.11
2022-08-27T07:07:32.561Z,38.20
2022-08-27T07:10:05.844Z,37.57
2022-08-27T07:12:34.219Z,37.25
2022-08-27T07:15:03.119Z,36.29
2022-08-27T07:17:34.430Z,36.25
2022-08-27T07:20:07.489Z,36.02
2022-08-27T07:22:37.007Z,35.43
2022-08-27T07:25:06.163Z,34.39
2022-08-27T07:27:35.763Z,34.06
2022-08-27T07:30:06.123Z,33.59
2022-08-27T07:32:35.950Z,33.87
2022-08-27T07:35:09.588Z,34.31
2022-08-27T07:37:38.536Z,34.16
2022-08-27T07:40:11.865Z,35.07
2022-08-27T07:43:01.908Z,34.80
2022-08-27T07:45:32.548Z,35.50
2022-08-27T07:48:02.532Z,36.02
2022-08-27T07:50:35.242Z,35.96
2022-08-27T07:53:04.812Z,35.54
2022-08-27T07:55:38.735Z,35.66
2022-08-27T07:58:16.849Z,36.16
2022-08-27T08:00:50.993Z,36.13
2022-08-27T08:03:30.355Z,36.25
2022-08-27T08:06:06.552Z,36.49
2022-08-27T08:08:45.601Z,35.90
2022-08-27T08:11:17.078Z,35.85
2022-08-27T08:13:48.823Z,36.53
2022-08-27T08:16:18.221Z,36.14
2022-08-27T08:18:52.841Z,36.26
2022-08-27T08:21:42.917Z,35.66
2022-08-27T08:24:12.651Z,35.85
2022-08-27T08:26:42.268Z,36.04
2022-08-27T08:29:18.190Z,35.79
2022-08-27T08:31:54.309Z,36.17
2022-08-27T08:34:25.112Z,35.18
2022-08-27T08:36:57.249Z,35.53
2022-08-27T08:39:28.081Z,35.05
2022-08-27T08:42:00.401Z,35.04
2022-08-27T08:44:37.287Z,34.36
2022-08-27T08:47:09.746Z,34.77
2022-08-27T08:49:51.277Z,33.84
2022-08-27T08:52:39.127Z,34.24
2022-08-27T08:55:16.676Z,33.34
2022-08-27T08:57:50.964Z,33.73
2022-08-27T09:00:35.332Z,33.45
2022-08-27T09:03:04.459Z,32.97
2022-08-27T09:05:33.357Z,33.63
2022-08-27T09:08:33.032Z,32.46
2022-08-27T09:11:12.145Z,33.05
2022-08-27T09:13:45.065Z,32.57
2022-08-27T09:16:14.944Z,31.69
2022-08-27T09:18:45.367Z,31.23
2022-08-27T09:21:28.451Z,32.12
2022-08-27T09:24:15.405Z,32.28
2022-08-27T09:26:49.208Z,32.05
2022-08-27T09:29:22.856Z,31.65
2022-08-27T09:32:02.559Z,31.58
2022-08-27T09:34:37.148Z,31.80
2022-08-27T09:37:09.408Z,31.72
2022-08-27T09:39:50.231Z,31.57
2022-08-27T09:42:32.111Z,31.58
2022-08-27T09:45:08.245Z,32.04
2022-08-27T09:47:46.859Z,31.36
2022-08-27T09:50:21.051Z,30.85
2022-08-27T09:52:55.587Z,31.14
2022-08-27T09:55:43.155Z,31.23
2022-08-27T09:58:23.473Z,30.63
2022-08-27T10:01:02.493Z,30.28
2022-08-27T10:03:33.519Z,30.65
2022-08-27T10:06:03.550Z,30.89
2022-08-27T10:08:39.204Z,30.69
2022-08-27T10:11:17.701Z,30.48
2022-08-27T10:13:54.741Z,30.02
2022-08-27T10:16:53.404Z,29.66
2022-08-27T10:19:39.620Z,30.48
2022-08-27T10:22:16.559Z,29.82
2022-08-27T10:25:02.058Z,29.56
2022-08-27T10:27:41.570Z,29.34
2022-08-27T10:30:14.216Z,30.03
2022-08-27T10:33:03.866Z,29.46
2022-08-27T10:35:37.469Z,28.40
2022-08-27T10:38:22.379Z,28.51
2022-08-27T10:40:57.871Z,28.08
2022-08-27T10:43:46.607Z,28.13
2022-08-27T10:46:33.640Z,28.30
2022-08-27T10:49:15.841Z,27.70
2022-08-27T10:51:59.040Z,28.25
2022-08-27T10:54:37.643Z,28.05
2022-08-27T10:57:31.672Z,27.27
2022-08-27T11:00:12.319Z,26.78
2022-08-27T11:02:45.670Z,26.87
2022-08-27T11:05:21.033Z,26.77
2022-08-27T11:07:55.477Z,27.29
2022-08-27T11:10:30.999Z,27.14
2022-08-27T11:13:07.260Z,27.39
2022-08-27T11:15:44.161Z,26.48
2022-08-27T11:18:18.784Z,26.55
2022-08-27T11:20:54.687Z,27.00
2022-08-27T11:23:28.626Z,26.52
2022-08-27T11:26:02.299Z,27.15
2022-08-27T11:28:37.804Z,26.49
2022-08-27T11:31:16.311Z,26.89
2022-08-27T11:33:53.669Z,26.98
2022-08-27T11:36:54.109Z,26.38
2022-08-27T11:39:41.095Z,26.56
2022-08-27T11:42:15.482Z,26.46
2022-08-27T11:44:46.876Z,26.28
2022-08-27T11:47:22.283Z,26.68
2022-08-27T11:49:54.649Z,26.96
2022-08-27T11:52:29.372Z,26.46
2022-08-27T11:55:12.887Z,25.58
2022-08-27T11:57:41.518Z,25.54
2022-08-27T12:00:19.407Z,25.53
2022-08-27T12:03:00.790Z,26.25
2022-08-27T12:05:41.782Z,25.34
2022-08-27T12:08:27.893Z,25.96
2022-08-27T12:11:14.690Z,26.62
2022-08-27T12:13:52.607Z,26.48
2022-08-27T12:16:30.957Z,25.88
2022-08-27T12:19:21.250Z,26.07
2022-08-27T12:22:06.436Z,26.60
2022-08-27T12:24:50.504Z,26.05
2022-08-27T12:27:32.458Z,26.35
2022-08-27T12:30:05.501Z,25.92
2022-08-27T12:32:41.245Z,26.20
2022-08-27T12:35:21.245Z,25.71
2022-08-27T12:37:57.836Z,26.20
2022-08-27T12:40:31.376Z,25.57
2022-08-27T12:43:10.367Z,25.66
2022-08-27T12:45:47.112Z,26.20
2022-08-27T12:48:18.790Z,26.57
2022-08-27T12:50:53.506Z,27.36
2022-08-27T12:53:47.249Z,26.97
2022-08-27T12:56:49.980Z,26.91
2022-08-27T12:59:41.869Z,27.39
2022-08-27T13:02:24.710Z,27.48
2022-08-27T13:04:54.361Z,27.31
2022-08-27T13:07:37.760Z,26.66
2022-08-27T13:10:12.055Z,27.34
2022-08-27T13:12:40.548Z,26.64
2022-08-27T13:15:10.765Z,26.30
2022-08-27T13:17:46.013Z,26.35
2022-08-27T13:20:20.598Z,26.02
2022-08-27T13:22:57.085Z,25.46
2022-08-27T13:25:30.971Z,25.88
2022-08-27T13:28:08.008Z,24.94
2022-08-27T13:30:39.312Z,25.18
2022-08-27T13:33:10.833Z,24.93
2022-08-27T13:35:42.674Z,25.21
2022-08-27T13:38:13.378Z,25.63
2022-08-27T13:40:55.426Z,26.52
2022-08-27T13:43:33.248Z,26.27
2022-08-27T13:46:05.716Z,26.94
2022-08-27T13:48:35.217Z,27.26
2022-08-27T13:51:04.246Z,26.34
2022-08-27T13:53:52.967Z,25.90
2022-08-27T13:56:27.210Z,25.50
2022-08-27T13:58:56.034Z,25.61
2022-08-27T14:01:30.267Z,26.43
2022-08-27T14:04:04.375Z,25.71
2022-08-27T14:06:42.883Z,25.54
2022-08-27T14:09:19.282Z,25.00
2022-08-27T14:11:48.473Z,24.91
2022-08-27T14:14:19.766Z,24.80
2022-08-27T14:16:58.500Z,25.42
2022-08-27T14:19:29.303Z,26.12
2022-08-27T14:22:04.162Z,25.32
2022-08-27T14:24:34.085Z,25.28
2022-08-27T14:27:07.326Z,24.58
2022-08-27T14:29:36.153Z,24.84
2022-08-27T14:32:07.760Z,24.91
2022-08-27T14:34:36.467Z,24.06
2022-08-27T14:37:05.503Z,24.69
2022-08-27T14:39:35.767Z,24.00
2022-08-27T14:42:05.703Z,26.55
2022-08-27T14:44:34.538Z,25.27
2022-08-27T14:47:03.341Z,25.23
2022-08-27T14:49:35.738Z,25.18
2022-08-27T14:52:06.981Z,25.01
2022-08-27T14:54:38.698Z,24.99
2022-08-27T14:57:08.468Z,24.98
2022-08-27T14:59:38.336Z,24.85
2022-08-27T15:02:11.404Z,24.55
2022-08-27T15:04:39.979Z,25.14
2022-08-27T15:07:10.834Z,24.85
2022-08-27T15:09:40.747Z,24.89
2022-08-27T15:12:15.068Z,25.68
2022-08-27T15:14:55.311Z,25.22
2022-08-27T15:17:34.299Z,25.22
2022-08-27T15:20:06.971Z,26.14
2022-08-27T15:22:36.506Z,29.21
2022-08-27T15:25:08.978Z,29.96
2022-08-27T15:27:39.197Z,30.37
2022-08-27T15:30:10.922Z,30.14
2022-08-27T15:32:42.584Z,29.92
2022-08-27T15:35:14.146Z,30.25
2022-08-27T15:37:43.781Z,29.96
2022-08-27T15:40:17.191Z,30.07
2022-08-27T15:42:46.382Z,30.09
2022-08-27T15:45:16.119Z,30.13
2022-08-27T15:47:44.647Z,30.00
2022-08-27T15:50:13.156Z,30.05
2022-08-27T15:52:43.468Z,30.45
2022-08-27T15:55:21.275Z,30.92
2022-08-27T15:57:50.010Z,30.81
2022-08-27T16:00:20.334Z,30.75
2022-08-27T16:02:49.875Z,31.00
2022-08-27T16:05:19.403Z,30.79
2022-08-27T16:07:48.212Z,30.63
2022-08-27T16:10:19.267Z,30.87
2022-08-27T16:12:47.897Z,31.27
2022-08-27T16:15:17.512Z,31.01
2022-08-27T16:17:46.824Z,31.04
2022-08-27T16:20:17.418Z,31.23
2022-08-27T16:22:46.467Z,31.12
2022-08-27T16:25:18.451Z,31.36
2022-08-27T16:27:49.629Z,31.34
2022-08-27T16:30:18.979Z,31.42
2022-08-27T16:32:49.438Z,31.07
2022-08-27T16:35:18.504Z,31.13
2022-08-27T16:37:47.055Z,31.23
2022-08-27T16:40:16.279Z,31.36
2022-08-27T16:42:48.847Z,31.34
2022-08-27T16:45:22.755Z,32.44
2022-08-27T16:48:09.285Z,32.80
2022-08-27T16:50:38.433Z,33.07
2022-08-27T16:53:09.179Z,32.44
2022-08-27T16:55:39.295Z,32.22
2022-08-27T16:58:13.490Z,33.26
2022-08-27T17:00:45.098Z,33.58
2022-08-27T17:03:14.975Z,33.62
2022-08-27T17:05:43.701Z,33.36
2022-08-27T17:08:13.638Z,34.17
2022-08-27T17:10:45.835Z,34.20
2022-08-27T17:13:17.036Z,33.87
2022-08-27T17:15:52.581Z,33.99
2022-08-27T17:18:22.660Z,33.55
2022-08-27T17:20:52.422Z,33.05
2022-08-27T17:23:24.850Z,33.42
2022-08-27T17:25:53.458Z,33.46
2022-08-27T17:28:21.969Z,33.87
2022-08-27T17:30:52.097Z,33.96
2022-08-27T17:33:24.380Z,33.74
2022-08-27T17:35:53.028Z,33.87
2022-08-27T17:38:21.459Z,34.34
2022-08-27T17:40:52.217Z,34.74
2022-08-27T17:43:21.754Z,34.55
2022-08-27T17:45:52.545Z,34.18
2022-08-27T17:48:26.040Z,34.36
2022-08-27T17:50:55.369Z,34.64
2022-08-27T17:53:24.135Z,34.78
2022-08-27T17:55:52.727Z,35.02
2022-08-27T17:58:21.493Z,35.02
2022-08-27T18:00:52.163Z,35.65
2022-08-27T18:03:21.740Z,35.75
2022-08-27T18:05:50.618Z,35.41
2022-08-27T18:08:20.572Z,35.65
2022-08-27T18:10:49.571Z,35.96
2022-08-27T18:13:19.648Z,36.62
2022-08-27T18:16:02.267Z,36.60
2022-08-27T18:18:30.868Z,36.93
2022-08-27T18:20:59.826Z,36.68
2022-08-27T18:23:29.889Z,37.14
2022-08-27T18:26:00.155Z,37.23
2022-08-27T18:28:29.157Z,37.35
2022-08-27T18:30:59.749Z,37.56
2022-08-27T18:33:32.457Z,37.58
2022-08-27T18:36:07.789Z,37.42
2022-08-27T18:38:36.672Z,37.55
2022-08-27T18:41:05.328Z,37.29
2022-08-27T18:43:37.940Z,37.80
2022-08-27T18:46:08.722Z,38.00
2022-08-27T18:48:37.604Z,38.21
2022-08-27T18:51:08.135Z,38.61
2022-08-27T18:53:40.594Z,39.10
2022-08-27T18:56:10.581Z,40.07
2022-08-27T18:58:40.207Z,40.55
2022-08-27T19:01:14.369Z,40.49
2022-08-27T19:03:46.194Z,41.17
2022-08-27T19:06:18.128Z,40.82
2022-08-27T19:08:47.557Z,40.86
2022-08-27T19:11:16.438Z,40.88
2022-08-27T19:13:45.003Z,41.17
2022-08-27T19:16:24.207Z,41.75
2022-08-27T19:18:53.562Z,42.05
2022-08-27T19:21:24.844Z,41.64
2022-08-27T19:23:54.171Z,42.06
2022-08-27T19:26:25.490Z,41.58
2022-08-27T19:28:54.676Z,42.21
2022-08-27T19:31:24.670Z,41.83
2022-08-27T19:33:53.487Z,42.16
2022-08-27T19:36:23.768Z,42.99
2022-08-27T19:38:58.178Z,43.03
2022-08-27T19:41:28.041Z,44.04
2022-08-27T19:43:56.618Z,43.73
2022-08-27T19:46:27.615Z,44.25
2022-08-27T19:48:58.105Z,43.72
2022-08-27T19:51:26.714Z,43.92
2022-08-27T19:53:55.328Z,44.35
2022-08-27T19:56:23.837Z,45.21
2022-08-27T19:58:56.665Z,44.85
2022-08-27T20:01:28.787Z,45.61
2022-08-27T20:03:59.086Z,45.42
2022-08-27T20:06:30.052Z,45.60
2022-08-27T20:08:58.779Z,46.02
2022-08-27T20:11:27.547Z,46.45
2022-08-27T20:13:56.402Z,46.84
2022-08-27T20:16:24.959Z,46.56
2022-08-27T20:18:59.659Z,46.78
2022-08-27T20:21:29.418Z,47.47
2022-08-27T20:23:57.946Z,47.58
2022-08-27T20:26:26.481Z,47.81
2022-08-27T20:28:54.930Z,48.30
2022-08-27T20:31:23.993Z,48.79
2022-08-27T20:33:52.799Z,48.14
2022-08-27T20:36:28.398Z,48.56
2022-08-27T20:38:57.089Z,48.58
2022-08-27T20:41:25.707Z,49.03
2022-08-27T20:43:54.775Z,49.04
2022-08-27T20:46:25.793Z,48.67
2022-08-27T20:48:56.557Z,49.08
2022-08-27T20:51:27.281Z,49.27
2022-08-27T20:53:56.567Z,49.72
2022-08-27T20:56:25.217Z,50.09
2022-08-27T20:59:10.891Z,50.29
2022-08-27T21:01:39.664Z,50.40
2022-08-27T21:04:08.054Z,50.64
2022-08-27T21:06:37.925Z,50.94
2022-08-27T21:09:06.626Z,51.04
2022-08-27T21:11:35.220Z,50.95
2022-08-27T21:14:03.698Z,50.79
2022-08-27T21:16:34.930Z,50.66
2022-08-27T21:19:03.410Z,50.10
2022-08-27T21:21:32.075Z,50.52
2022-08-27T21:24:02.470Z,50.43
2022-08-27T21:26:32.133Z,50.35
2022-08-27T21:29:00.614Z,50.17
2022-08-27T21:31:29.618Z,50.58
2022-08-27T21:33:58.243Z,50.54
2022-08-27T21:36:26.777Z,50.62
2022-08-27T21:38:55.514Z,50.78
2022-08-27T21:41:26.349Z,50.60
2022-08-27T21:43:55.026Z,50.91
2022-08-27T21:46:24.055Z,51.16
2022-08-27T21:48:59.105Z,51.39
2022-08-27T21:51:28.151Z,51.62
2022-08-27T21:53:56.558Z,51.47
2022-08-27T21:56:26.533Z,51.29
2022-08-27T21:58:57.399Z,51.25
2022-08-27T22:01:28.945Z,51.37
2022-08-27T22:03:57.648Z,51.68
2022-08-27T22:06:27.466Z,51.66
2022-08-27T22:08:56.006Z,52.20
2022-08-27T22:11:26.227Z,52.46
2022-08-27T22:13:55.113Z,52.84
2022-08-27T22:16:23.878Z,53.04
2022-08-27T22:18:54.754Z,53.36
2022-08-27T22:21:24.187Z,53.63
2022-08-27T22:23:53.568Z,53.90
2022-08-27T22:26:22.900Z,54.46
2022-08-27T22:28:52.818Z,54.82
2022-08-27T22:31:21.559Z,55.07
2022-08-27T22:33:50.116Z,55.24
2022-08-27T22:36:19.871Z,55.31
2022-08-27T22:38:48.434Z,55.84
2022-08-27T22:41:18.571Z,55.89
2022-08-27T22:43:47.567Z,55.44
2022-08-27T22:46:19.052Z,55.10
2022-08-27T22:48:50.175Z,54.38
2022-08-27T22:51:22.801Z,54.09
2022-08-27T22:55:45.653Z,54.63
2022-08-27T22:58:16.453Z,54.43
2022-08-27T23:00:52.147Z,54.65
2022-08-27T23:03:21.422Z,55.02
2022-08-27T23:05:49.809Z,55.20
2022-08-27T23:08:18.323Z,55.86
2022-08-27T23:10:47.972Z,55.83
2022-08-27T23:13:16.380Z,55.64
2022-08-27T23:15:44.675Z,55.80
2022-08-27T23:18:13.236Z,56.43
2022-08-27T23:20:41.667Z,56.60
2022-08-27T23:23:10.284Z,56.53
2022-08-27T23:25:56.426Z,56.74
2022-08-27T23:28:26.136Z,57.49
2022-08-27T23:30:54.649Z,57.51
2022-08-27T23:33:23.285Z,57.81
2022-08-27T23:35:51.952Z,58.37
2022-08-27T23:38:21.344Z,58.90
2022-08-27T23:40:51.289Z,58.94
2022-08-27T23:43:20.968Z,59.02
2022-08-27T23:45:52.112Z,58.99
2022-08-27T23:48:21.093Z,58.99
2022-08-27T23:50:49.629Z,58.69
2022-08-27T23:53:17.927Z,58.49
2022-08-27T23:55:46.224Z,58.44
2022-08-27T23:58:14.952Z,58.35
